sensor_id;sensor_type;location;lat;lon;timestamp;P1;durP1;ratioP1;P2;durP2;ratioP2
15281;SDS011;7742;44.320;19.820;2023-10-19T00:02:08;19.70;;;18.23;;
15281;SDS011;7742;44.320;19.820;2023-10-19T00:04:34;19.30;;;18.10;;
15281;SDS011;7742;44.320;19.820;2023-10-19T00:07:02;20.57;;;19.17;;
15281;SDS011;7742;44.320;19.820;2023-10-19T00:09:32;21.30;;;19.77;;
15281;SDS011;7742;44.320;19.820;2023-10-19T00:12:03;20.47;;;19.17;;
15281;SDS011;7742;44.320;19.820;2023-10-19T00:14:31;20.23;;;18.83;;
15281;SDS011;7742;44.320;19.820;2023-10-19T00:16:58;19.70;;;18.30;;
15281;SDS011;7742;44.320;19.820;2023-10-19T00:19:30;19.47;;;18.10;;
15281;SDS011;7742;44.320;19.820;2023-10-19T00:22:03;18.27;;;17.17;;
15281;SDS011;7742;44.320;19.820;2023-10-19T00:24:33;17.03;;;15.83;;
15281;SDS011;7742;44.320;19.820;2023-10-19T00:27:00;17.37;;;16.37;;
15281;SDS011;7742;44.320;19.820;2023-10-19T00:29:32;17.37;;;16.37;;
15281;SDS011;7742;44.320;19.820;2023-10-19T00:32:05;18.43;;;17.23;;
15281;SDS011;7742;44.320;19.820;2023-10-19T00:34:38;20.90;;;19.60;;
15281;SDS011;7742;44.320;19.820;2023-10-19T00:37:06;20.27;;;18.97;;
15281;SDS011;7742;44.320;19.820;2023-10-19T00:39:36;20.87;;;19.57;;
15281;SDS011;7742;44.320;19.820;2023-10-19T00:42:09;21.17;;;19.77;;
15281;SDS011;7742;44.320;19.820;2023-10-19T00:44:38;19.83;;;18.43;;
15281;SDS011;7742;44.320;19.820;2023-10-19T00:47:07;19.50;;;18.23;;
15281;SDS011;7742;44.320;19.820;2023-10-19T00:49:38;20.97;;;19.57;;
15281;SDS011;7742;44.320;19.820;2023-10-19T00:52:05;20.73;;;19.37;;
15281;SDS011;7742;44.320;19.820;2023-10-19T00:54:38;20.73;;;19.33;;
15281;SDS011;7742;44.320;19.820;2023-10-19T00:57:07;20.33;;;18.93;;
15281;SDS011;7742;44.320;19.820;2023-10-19T00:59:36;20.23;;;18.93;;
15281;SDS011;7742;44.320;19.820;2023-10-19T01:02:09;19.33;;;18.13;;
15281;SDS011;7742;44.320;19.820;2023-10-19T01:04:47;20.00;;;18.77;;
15281;SDS011;7742;44.320;19.820;2023-10-19T01:07:21;19.63;;;18.43;;
15281;SDS011;7742;44.320;19.820;2023-10-19T01:09:53;19.80;;;18.60;;
15281;SDS011;7742;44.320;19.820;2023-10-19T01:12:22;20.07;;;18.80;;
15281;SDS011;7742;44.320;19.820;2023-10-19T01:15:02;20.30;;;19.10;;
15281;SDS011;7742;44.320;19.820;2023-10-19T01:17:39;19.57;;;18.37;;
15281;SDS011;7742;44.320;19.820;2023-10-19T01:20:09;20.70;;;19.40;;
15281;SDS011;7742;44.320;19.820;2023-10-19T01:22:50;19.90;;;18.70;;
15281;SDS011;7742;44.320;19.820;2023-10-19T01:25:43;19.57;;;18.37;;
15281;SDS011;7742;44.320;19.820;2023-10-19T01:28:15;20.13;;;18.80;;
15281;SDS011;7742;44.320;19.820;2023-10-19T01:30:42;18.97;;;17.87;;
15281;SDS011;7742;44.320;19.820;2023-10-19T01:33:09;20.10;;;18.90;;
15281;SDS011;7742;44.320;19.820;2023-10-19T01:35:41;19.73;;;18.53;;
15281;SDS011;7742;44.320;19.820;2023-10-19T01:38:26;20.43;;;19.13;;
15281;SDS011;7742;44.320;19.820;2023-10-19T01:40:56;20.77;;;19.47;;
15281;SDS011;7742;44.320;19.820;2023-10-19T01:43:25;19.33;;;18.20;;
15281;SDS011;7742;44.320;19.820;2023-10-19T01:45:55;20.13;;;18.93;;
15281;SDS011;7742;44.320;19.820;2023-10-19T01:48:22;19.47;;;18.17;;
15281;SDS011;7742;44.320;19.820;2023-10-19T01:50:57;19.70;;;18.27;;
15281;SDS011;7742;44.320;19.820;2023-10-19T01:53:24;20.20;;;18.87;;
15281;SDS011;7742;44.320;19.820;2023-10-19T01:55:52;20.13;;;18.87;;
15281;SDS011;7742;44.320;19.820;2023-10-19T01:58:33;20.00;;;18.80;;
15281;SDS011;7742;44.320;19.820;2023-10-19T02:01:02;19.50;;;18.30;;
15281;SDS011;7742;44.320;19.820;2023-10-19T02:03:32;20.50;;;19.10;;
15281;SDS011;7742;44.320;19.820;2023-10-19T02:06:01;20.13;;;18.83;;
15281;SDS011;7742;44.320;19.820;2023-10-19T02:08:38;19.20;;;18.10;;
15281;SDS011;7742;44.320;19.820;2023-10-19T02:14:21;19.87;;;18.67;;
15281;SDS011;7742;44.320;19.820;2023-10-19T02:16:51;19.53;;;18.27;;
15281;SDS011;7742;44.320;19.820;2023-10-19T02:19:18;20.13;;;18.73;;
15281;SDS011;7742;44.320;19.820;2023-10-19T02:27:39;19.33;;;18.13;;
15281;SDS011;7742;44.320;19.820;2023-10-19T02:30:08;20.13;;;18.73;;
15281;SDS011;7742;44.320;19.820;2023-10-19T02:32:36;19.27;;;18.07;;
15281;SDS011;7742;44.320;19.820;2023-10-19T02:35:04;19.37;;;18.07;;
15281;SDS011;7742;44.320;19.820;2023-10-19T02:37:30;18.03;;;16.93;;
15281;SDS011;7742;44.320;19.820;2023-10-19T02:39:56;18.27;;;16.97;;
15281;SDS011;7742;44.320;19.820;2023-10-19T02:42:23;18.13;;;16.90;;
15281;SDS011;7742;44.320;19.820;2023-10-19T02:44:50;17.70;;;16.50;;
15281;SDS011;7742;44.320;19.820;2023-10-19T02:47:17;17.13;;;16.07;;
15281;SDS011;7742;44.320;19.820;2023-10-19T02:49:44;16.70;;;15.70;;
15281;SDS011;7742;44.320;19.820;2023-10-19T02:52:16;18.00;;;17.00;;
15281;SDS011;7742;44.320;19.820;2023-10-19T02:54:43;17.60;;;16.53;;
15281;SDS011;7742;44.320;19.820;2023-10-19T02:57:11;17.37;;;16.20;;
15281;SDS011;7742;44.320;19.820;2023-10-19T02:59:38;16.70;;;15.70;;
15281;SDS011;7742;44.320;19.820;2023-10-19T03:02:05;21.90;;;20.80;;
15281;SDS011;7742;44.320;19.820;2023-10-19T03:04:42;17.70;;;16.77;;
15281;SDS011;7742;44.320;19.820;2023-10-19T03:07:10;18.07;;;16.97;;
15281;SDS011;7742;44.320;19.820;2023-10-19T03:09:37;18.17;;;17.07;;
15281;SDS011;7742;44.320;19.820;2023-10-19T03:12:05;17.93;;;16.80;;
15281;SDS011;7742;44.320;19.820;2023-10-19T03:14:35;18.07;;;16.87;;
15281;SDS011;7742;44.320;19.820;2023-10-19T03:17:03;18.57;;;17.30;;
15281;SDS011;7742;44.320;19.820;2023-10-19T03:19:30;18.63;;;17.63;;
15281;SDS011;7742;44.320;19.820;2023-10-19T03:21:59;19.70;;;18.60;;
15281;SDS011;7742;44.320;19.820;2023-10-19T03:24:25;21.17;;;19.80;;
15281;SDS011;7742;44.320;19.820;2023-10-19T03:27:02;20.27;;;19.07;;
15281;SDS011;7742;44.320;19.820;2023-10-19T03:29:34;20.67;;;19.47;;
15281;SDS011;7742;44.320;19.820;2023-10-19T03:32:04;21.40;;;20.07;;
15281;SDS011;7742;44.320;19.820;2023-10-19T03:34:31;19.03;;;18.03;;
15281;SDS011;7742;44.320;19.820;2023-10-19T03:37:00;19.77;;;18.57;;
15281;SDS011;7742;44.320;19.820;2023-10-19T03:39:30;16.87;;;15.87;;
15281;SDS011;7742;44.320;19.820;2023-10-19T03:42:12;16.97;;;15.87;;
15281;SDS011;7742;44.320;19.820;2023-10-19T03:48:04;16.27;;;15.33;;
15281;SDS011;7742;44.320;19.820;2023-10-19T03:50:34;15.80;;;14.90;;
15281;SDS011;7742;44.320;19.820;2023-10-19T03:53:04;17.00;;;15.90;;
15281;SDS011;7742;44.320;19.820;2023-10-19T03:56:04;16.20;;;15.20;;
15281;SDS011;7742;44.320;19.820;2023-10-19T03:58:36;17.87;;;16.77;;
15281;SDS011;7742;44.320;19.820;2023-10-19T04:01:05;16.67;;;15.77;;
15281;SDS011;7742;44.320;19.820;2023-10-19T04:03:43;16.87;;;15.87;;
15281;SDS011;7742;44.320;19.820;2023-10-19T04:06:14;17.33;;;16.33;;
15281;SDS011;7742;44.320;19.820;2023-10-19T04:08:50;18.67;;;17.57;;
15281;SDS011;7742;44.320;19.820;2023-10-19T04:11:20;19.30;;;18.00;;
15281;SDS011;7742;44.320;19.820;2023-10-19T04:14:18;18.17;;;17.17;;
15281;SDS011;7742;44.320;19.820;2023-10-19T04:16:46;18.10;;;17.10;;
15281;SDS011;7742;44.320;19.820;2023-10-19T04:22:09;19.00;;;18.00;;
15281;SDS011;7742;44.320;19.820;2023-10-19T04:28:11;17.13;;;16.13;;
15281;SDS011;7742;44.320;19.820;2023-10-19T04:30:39;17.83;;;16.80;;
15281;SDS011;7742;44.320;19.820;2023-10-19T04:33:05;17.13;;;16.13;;
15281;SDS011;7742;44.320;19.820;2023-10-19T04:35:34;17.03;;;15.93;;
15281;SDS011;7742;44.320;19.820;2023-10-19T04:38:03;16.53;;;15.47;;
15281;SDS011;7742;44.320;19.820;2023-10-19T04:40:31;18.10;;;17.03;;
15281;SDS011;7742;44.320;19.820;2023-10-19T04:42:59;18.50;;;17.50;;
15281;SDS011;7742;44.320;19.820;2023-10-19T04:45:31;18.43;;;17.30;;
15281;SDS011;7742;44.320;19.820;2023-10-19T04:47:58;18.40;;;17.30;;
15281;SDS011;7742;44.320;19.820;2023-10-19T04:50:24;19.30;;;18.10;;
15281;SDS011;7742;44.320;19.820;2023-10-19T04:52:51;36.43;;;32.63;;
15281;SDS011;7742;44.320;19.820;2023-10-19T04:55:18;28.17;;;25.30;;
15281;SDS011;7742;44.320;19.820;2023-10-19T04:57:45;34.80;;;29.80;;
15281;SDS011;7742;44.320;19.820;2023-10-19T05:00:13;32.00;;;29.00;;
15281;SDS011;7742;44.320;19.820;2023-10-19T05:02:42;27.23;;;25.03;;
15281;SDS011;7742;44.320;19.820;2023-10-19T05:05:09;20.43;;;18.83;;
15281;SDS011;7742;44.320;19.820;2023-10-19T05:07:36;22.20;;;20.60;;
15281;SDS011;7742;44.320;19.820;2023-10-19T05:10:03;17.87;;;16.63;;
15281;SDS011;7742;44.320;19.820;2023-10-19T05:12:30;17.77;;;16.60;;
15281;SDS011;7742;44.320;19.820;2023-10-19T05:14:57;17.00;;;16.03;;
15281;SDS011;7742;44.320;19.820;2023-10-19T05:17:24;18.27;;;17.07;;
15281;SDS011;7742;44.320;19.820;2023-10-19T05:19:53;18.40;;;17.20;;
15281;SDS011;7742;44.320;19.820;2023-10-19T05:22:20;17.80;;;16.63;;
15281;SDS011;7742;44.320;19.820;2023-10-19T05:24:50;15.87;;;14.80;;
15281;SDS011;7742;44.320;19.820;2023-10-19T05:27:17;16.60;;;15.60;;
15281;SDS011;7742;44.320;19.820;2023-10-19T05:29:45;16.63;;;15.63;;
15281;SDS011;7742;44.320;19.820;2023-10-19T05:32:12;16.90;;;15.90;;
15281;SDS011;7742;44.320;19.820;2023-10-19T05:34:38;16.13;;;15.20;;
15281;SDS011;7742;44.320;19.820;2023-10-19T05:37:07;16.20;;;15.30;;
15281;SDS011;7742;44.320;19.820;2023-10-19T05:39:34;17.73;;;16.63;;
15281;SDS011;7742;44.320;19.820;2023-10-19T05:42:01;17.33;;;15.77;;
15281;SDS011;7742;44.320;19.820;2023-10-19T05:44:29;16.80;;;15.80;;
15281;SDS011;7742;44.320;19.820;2023-10-19T05:46:56;18.27;;;17.07;;
15281;SDS011;7742;44.320;19.820;2023-10-19T05:49:23;18.73;;;17.53;;
15281;SDS011;7742;44.320;19.820;2023-10-19T05:51:50;18.23;;;17.03;;
15281;SDS011;7742;44.320;19.820;2023-10-19T05:54:19;16.33;;;15.33;;
15281;SDS011;7742;44.320;19.820;2023-10-19T05:56:48;17.33;;;16.37;;
15281;SDS011;7742;44.320;19.820;2023-10-19T05:59:15;17.07;;;16.17;;
15281;SDS011;7742;44.320;19.820;2023-10-19T06:01:42;17.00;;;16.10;;
15281;SDS011;7742;44.320;19.820;2023-10-19T06:04:12;17.43;;;16.33;;
15281;SDS011;7742;44.320;19.820;2023-10-19T06:06:39;17.53;;;16.43;;
15281;SDS011;7742;44.320;19.820;2023-10-19T06:09:06;17.10;;;16.20;;
15281;SDS011;7742;44.320;19.820;2023-10-19T06:11:36;17.43;;;16.43;;
15281;SDS011;7742;44.320;19.820;2023-10-19T06:14:07;17.30;;;16.30;;
15281;SDS011;7742;44.320;19.820;2023-10-19T06:16:35;17.90;;;16.80;;
15281;SDS011;7742;44.320;19.820;2023-10-19T06:19:02;17.70;;;16.60;;
15281;SDS011;7742;44.320;19.820;2023-10-19T06:21:29;18.00;;;16.80;;
15281;SDS011;7742;44.320;19.820;2023-10-19T06:23:56;17.30;;;16.20;;
15281;SDS011;7742;44.320;19.820;2023-10-19T06:26:24;17.07;;;16.00;;
15281;SDS011;7742;44.320;19.820;2023-10-19T06:28:52;18.87;;;17.77;;
15281;SDS011;7742;44.320;19.820;2023-10-19T06:31:23;17.57;;;16.57;;
15281;SDS011;7742;44.320;19.820;2023-10-19T06:33:51;17.47;;;16.33;;
15281;SDS011;7742;44.320;19.820;2023-10-19T06:36:18;17.07;;;16.07;;
15281;SDS011;7742;44.320;19.820;2023-10-19T06:38:45;17.43;;;16.33;;
15281;SDS011;7742;44.320;19.820;2023-10-19T06:41:13;17.23;;;16.30;;
15281;SDS011;7742;44.320;19.820;2023-10-19T06:43:41;17.30;;;16.40;;
15281;SDS011;7742;44.320;19.820;2023-10-19T06:46:10;16.73;;;15.73;;
15281;SDS011;7742;44.320;19.820;2023-10-19T06:48:37;17.73;;;16.70;;
15281;SDS011;7742;44.320;19.820;2023-10-19T06:51:04;17.30;;;16.30;;
15281;SDS011;7742;44.320;19.820;2023-10-19T06:53:31;17.63;;;16.73;;
15281;SDS011;7742;44.320;19.820;2023-10-19T06:55:58;18.27;;;17.20;;
15281;SDS011;7742;44.320;19.820;2023-10-19T06:58:25;16.60;;;15.57;;
15281;SDS011;7742;44.320;19.820;2023-10-19T07:00:52;18.47;;;17.37;;
15281;SDS011;7742;44.320;19.820;2023-10-19T07:03:26;18.87;;;17.77;;
15281;SDS011;7742;44.320;19.820;2023-10-19T07:05:54;18.00;;;17.00;;
15281;SDS011;7742;44.320;19.820;2023-10-19T07:08:23;17.10;;;16.10;;
15281;SDS011;7742;44.320;19.820;2023-10-19T07:10:52;15.93;;;14.93;;
15281;SDS011;7742;44.320;19.820;2023-10-19T07:13:19;15.77;;;14.80;;
15281;SDS011;7742;44.320;19.820;2023-10-19T07:15:47;15.63;;;14.73;;
15281;SDS011;7742;44.320;19.820;2023-10-19T07:18:14;16.97;;;15.97;;
15281;SDS011;7742;44.320;19.820;2023-10-19T07:20:42;15.60;;;14.80;;
15281;SDS011;7742;44.320;19.820;2023-10-19T07:23:13;15.53;;;14.70;;
15281;SDS011;7742;44.320;19.820;2023-10-19T07:25:45;17.10;;;16.00;;
15281;SDS011;7742;44.320;19.820;2023-10-19T07:28:13;18.30;;;17.20;;
15281;SDS011;7742;44.320;19.820;2023-10-19T07:30:41;17.67;;;16.73;;
15281;SDS011;7742;44.320;19.820;2023-10-19T07:33:08;18.80;;;17.80;;
15281;SDS011;7742;44.320;19.820;2023-10-19T07:35:35;17.97;;;16.87;;
15281;SDS011;7742;44.320;19.820;2023-10-19T07:38:04;16.97;;;15.97;;
15281;SDS011;7742;44.320;19.820;2023-10-19T07:40:33;16.93;;;16.07;;
15281;SDS011;7742;44.320;19.820;2023-10-19T07:43:00;18.27;;;17.20;;
15281;SDS011;7742;44.320;19.820;2023-10-19T07:45:26;18.37;;;17.17;;
15281;SDS011;7742;44.320;19.820;2023-10-19T07:47:53;17.87;;;16.93;;
15281;SDS011;7742;44.320;19.820;2023-10-19T07:50:21;16.33;;;15.53;;
15281;SDS011;7742;44.320;19.820;2023-10-19T07:52:49;18.33;;;17.33;;
15281;SDS011;7742;44.320;19.820;2023-10-19T07:55:17;19.47;;;18.47;;
15281;SDS011;7742;44.320;19.820;2023-10-19T07:57:45;17.20;;;16.30;;
15281;SDS011;7742;44.320;19.820;2023-10-19T08:00:12;18.10;;;17.10;;
15281;SDS011;7742;44.320;19.820;2023-10-19T08:02:40;16.97;;;16.07;;
15281;SDS011;7742;44.320;19.820;2023-10-19T08:05:07;15.17;;;14.43;;
15281;SDS011;7742;44.320;19.820;2023-10-19T08:07:36;17.70;;;16.60;;
15281;SDS011;7742;44.320;19.820;2023-10-19T08:10:05;17.13;;;16.10;;
15281;SDS011;7742;44.320;19.820;2023-10-19T08:12:36;15.13;;;14.20;;
15281;SDS011;7742;44.320;19.820;2023-10-19T08:15:03;18.67;;;17.57;;
15281;SDS011;7742;44.320;19.820;2023-10-19T08:17:32;19.70;;;18.50;;
15281;SDS011;7742;44.320;19.820;2023-10-19T08:19:59;20.97;;;19.57;;
15281;SDS011;7742;44.320;19.820;2023-10-19T08:22:28;24.80;;;22.83;;
15281;SDS011;7742;44.320;19.820;2023-10-19T08:24:55;25.47;;;23.67;;
15281;SDS011;7742;44.320;19.820;2023-10-19T08:27:22;24.40;;;22.70;;
15281;SDS011;7742;44.320;19.820;2023-10-19T08:29:51;23.87;;;22.20;;
15281;SDS011;7742;44.320;19.820;2023-10-19T08:32:17;24.20;;;22.67;;
15281;SDS011;7742;44.320;19.820;2023-10-19T08:34:44;25.13;;;23.53;;
15281;SDS011;7742;44.320;19.820;2023-10-19T08:37:11;24.87;;;23.27;;
15281;SDS011;7742;44.320;19.820;2023-10-19T08:39:38;24.77;;;23.07;;
15281;SDS011;7742;44.320;19.820;2023-10-19T08:42:05;26.60;;;24.60;;
15281;SDS011;7742;44.320;19.820;2023-10-19T08:44:32;25.20;;;23.40;;
15281;SDS011;7742;44.320;19.820;2023-10-19T08:47:01;25.97;;;24.17;;
15281;SDS011;7742;44.320;19.820;2023-10-19T08:49:30;26.67;;;24.77;;
15281;SDS011;7742;44.320;19.820;2023-10-19T08:51:58;25.40;;;23.60;;
15281;SDS011;7742;44.320;19.820;2023-10-19T08:54:25;25.13;;;23.33;;
15281;SDS011;7742;44.320;19.820;2023-10-19T08:56:52;26.43;;;24.63;;
15281;SDS011;7742;44.320;19.820;2023-10-19T08:59:21;22.87;;;21.37;;
15281;SDS011;7742;44.320;19.820;2023-10-19T09:01:48;25.13;;;23.60;;
15281;SDS011;7742;44.320;19.820;2023-10-19T09:04:17;24.47;;;22.67;;
15281;SDS011;7742;44.320;19.820;2023-10-19T09:06:44;24.13;;;22.43;;
15281;SDS011;7742;44.320;19.820;2023-10-19T09:09:11;24.43;;;22.53;;
15281;SDS011;7742;44.320;19.820;2023-10-19T09:11:42;22.50;;;20.90;;
15281;SDS011;7742;44.320;19.820;2023-10-19T09:14:09;23.73;;;22.13;;
15281;SDS011;7742;44.320;19.820;2023-10-19T09:16:38;24.90;;;23.20;;
15281;SDS011;7742;44.320;19.820;2023-10-19T09:19:05;25.50;;;23.80;;
15281;SDS011;7742;44.320;19.820;2023-10-19T09:21:33;24.87;;;23.27;;
15281;SDS011;7742;44.320;19.820;2023-10-19T09:24:00;24.93;;;23.37;;
15281;SDS011;7742;44.320;19.820;2023-10-19T09:26:27;24.30;;;22.60;;
15281;SDS011;7742;44.320;19.820;2023-10-19T09:28:54;25.60;;;23.53;;
15281;SDS011;7742;44.320;19.820;2023-10-19T09:31:21;25.10;;;23.40;;
15281;SDS011;7742;44.320;19.820;2023-10-19T09:33:50;25.30;;;23.60;;
15281;SDS011;7742;44.320;19.820;2023-10-19T09:36:18;24.40;;;22.70;;
15281;SDS011;7742;44.320;19.820;2023-10-19T09:38:49;26.40;;;24.40;;
15281;SDS011;7742;44.320;19.820;2023-10-19T09:41:17;27.07;;;25.37;;
15281;SDS011;7742;44.320;19.820;2023-10-19T09:43:44;27.17;;;25.23;;
15281;SDS011;7742;44.320;19.820;2023-10-19T09:46:12;24.50;;;22.70;;
15281;SDS011;7742;44.320;19.820;2023-10-19T09:48:45;26.10;;;24.40;;
15281;SDS011;7742;44.320;19.820;2023-10-19T09:51:13;27.83;;;26.13;;
15281;SDS011;7742;44.320;19.820;2023-10-19T09:53:57;30.57;;;28.70;;
15281;SDS011;7742;44.320;19.820;2023-10-19T09:56:30;25.93;;;23.97;;
15281;SDS011;7742;44.320;19.820;2023-10-19T09:58:59;23.93;;;22.20;;
15281;SDS011;7742;44.320;19.820;2023-10-19T10:01:29;24.20;;;22.43;;
15281;SDS011;7742;44.320;19.820;2023-10-19T10:04:30;21.77;;;20.57;;
15281;SDS011;7742;44.320;19.820;2023-10-19T10:06:57;20.93;;;19.73;;
15281;SDS011;7742;44.320;19.820;2023-10-19T10:09:26;19.93;;;18.77;;
15281;SDS011;7742;44.320;19.820;2023-10-19T10:11:54;18.90;;;17.50;;
15281;SDS011;7742;44.320;19.820;2023-10-19T10:14:22;19.97;;;18.67;;
15281;SDS011;7742;44.320;19.820;2023-10-19T10:16:58;20.43;;;19.13;;
15281;SDS011;7742;44.320;19.820;2023-10-19T10:19:26;21.70;;;20.47;;
15281;SDS011;7742;44.320;19.820;2023-10-19T10:22:03;23.00;;;21.70;;
15281;SDS011;7742;44.320;19.820;2023-10-19T10:24:32;20.77;;;19.57;;
15281;SDS011;7742;44.320;19.820;2023-10-19T10:26:59;19.97;;;18.87;;
15281;SDS011;7742;44.320;19.820;2023-10-19T10:29:28;20.30;;;19.20;;
15281;SDS011;7742;44.320;19.820;2023-10-19T10:31:56;19.03;;;17.93;;
15281;SDS011;7742;44.320;19.820;2023-10-19T10:34:42;20.20;;;19.00;;
15281;SDS011;7742;44.320;19.820;2023-10-19T10:37:09;20.43;;;19.23;;
15281;SDS011;7742;44.320;19.820;2023-10-19T10:39:38;20.27;;;19.17;;
15281;SDS011;7742;44.320;19.820;2023-10-19T10:42:06;18.67;;;17.50;;
15281;SDS011;7742;44.320;19.820;2023-10-19T10:44:37;20.17;;;19.17;;
15281;SDS011;7742;44.320;19.820;2023-10-19T10:47:05;22.10;;;21.00;;
15281;SDS011;7742;44.320;19.820;2023-10-19T10:49:35;23.40;;;22.20;;
15281;SDS011;7742;44.320;19.820;2023-10-19T10:52:12;22.00;;;20.90;;
15281;SDS011;7742;44.320;19.820;2023-10-19T10:54:40;19.10;;;17.90;;
15281;SDS011;7742;44.320;19.820;2023-10-19T10:57:07;20.63;;;19.50;;
15281;SDS011;7742;44.320;19.820;2023-10-19T10:59:34;21.83;;;20.57;;
15281;SDS011;7742;44.320;19.820;2023-10-19T11:02:01;20.17;;;18.97;;
15281;SDS011;7742;44.320;19.820;2023-10-19T11:04:28;19.63;;;18.53;;
15281;SDS011;7742;44.320;19.820;2023-10-19T11:06:55;21.17;;;19.77;;
15281;SDS011;7742;44.320;19.820;2023-10-19T11:09:22;21.20;;;20.20;;
15281;SDS011;7742;44.320;19.820;2023-10-19T11:11:51;21.90;;;20.80;;
15281;SDS011;7742;44.320;19.820;2023-10-19T11:14:19;26.77;;;25.20;;
15281;SDS011;7742;44.320;19.820;2023-10-19T11:16:49;21.23;;;20.13;;
15281;SDS011;7742;44.320;19.820;2023-10-19T11:19:16;20.50;;;19.30;;
15281;SDS011;7742;44.320;19.820;2023-10-19T11:21:52;21.13;;;20.03;;
15281;SDS011;7742;44.320;19.820;2023-10-19T11:24:28;20.23;;;19.10;;
15281;SDS011;7742;44.320;19.820;2023-10-19T11:27:04;19.60;;;18.40;;
15281;SDS011;7742;44.320;19.820;2023-10-19T11:29:33;16.40;;;15.30;;
15281;SDS011;7742;44.320;19.820;2023-10-19T11:32:00;16.47;;;15.40;;
15281;SDS011;7742;44.320;19.820;2023-10-19T11:34:27;18.10;;;17.00;;
15281;SDS011;7742;44.320;19.820;2023-10-19T11:36:56;18.50;;;17.30;;
15281;SDS011;7742;44.320;19.820;2023-10-19T11:39:25;16.53;;;15.53;;
15281;SDS011;7742;44.320;19.820;2023-10-19T11:41:52;17.23;;;16.23;;
15281;SDS011;7742;44.320;19.820;2023-10-19T11:44:20;18.90;;;17.50;;
15281;SDS011;7742;44.320;19.820;2023-10-19T11:46:47;19.07;;;17.57;;
15281;SDS011;7742;44.320;19.820;2023-10-19T11:49:14;17.43;;;16.43;;
15281;SDS011;7742;44.320;19.820;2023-10-19T11:51:41;17.10;;;16.10;;
15281;SDS011;7742;44.320;19.820;2023-10-19T11:54:09;20.00;;;18.27;;
15281;SDS011;7742;44.320;19.820;2023-10-19T11:56:36;18.20;;;17.20;;
15281;SDS011;7742;44.320;19.820;2023-10-19T11:59:02;17.67;;;16.47;;
15281;SDS011;7742;44.320;19.820;2023-10-19T12:01:31;17.20;;;16.20;;
15281;SDS011;7742;44.320;19.820;2023-10-19T12:03:58;16.43;;;15.40;;
15281;SDS011;7742;44.320;19.820;2023-10-19T12:06:25;16.90;;;15.90;;
15281;SDS011;7742;44.320;19.820;2023-10-19T12:08:52;15.60;;;14.70;;
15281;SDS011;7742;44.320;19.820;2023-10-19T12:11:21;18.23;;;16.93;;
15281;SDS011;7742;44.320;19.820;2023-10-19T12:13:49;18.03;;;16.87;;
15281;SDS011;7742;44.320;19.820;2023-10-19T12:16:16;17.70;;;16.57;;
15281;SDS011;7742;44.320;19.820;2023-10-19T12:18:45;18.27;;;16.80;;
15281;SDS011;7742;44.320;19.820;2023-10-19T12:21:13;17.27;;;16.07;;
15281;SDS011;7742;44.320;19.820;2023-10-19T12:23:43;16.50;;;15.50;;
15281;SDS011;7742;44.320;19.820;2023-10-19T12:26:10;17.23;;;16.10;;
15281;SDS011;7742;44.320;19.820;2023-10-19T12:28:37;16.47;;;15.37;;
15281;SDS011;7742;44.320;19.820;2023-10-19T12:31:04;14.17;;;13.30;;
15281;SDS011;7742;44.320;19.820;2023-10-19T12:33:34;14.07;;;13.07;;
15281;SDS011;7742;44.320;19.820;2023-10-19T12:36:02;15.00;;;14.20;;
15281;SDS011;7742;44.320;19.820;2023-10-19T12:38:48;14.10;;;13.30;;
15281;SDS011;7742;44.320;19.820;2023-10-19T12:41:15;14.17;;;13.37;;
15281;SDS011;7742;44.320;19.820;2023-10-19T12:43:42;15.73;;;14.63;;
15281;SDS011;7742;44.320;19.820;2023-10-19T12:46:09;17.80;;;16.60;;
15281;SDS011;7742;44.320;19.820;2023-10-19T12:48:38;17.27;;;16.03;;
15281;SDS011;7742;44.320;19.820;2023-10-19T12:51:06;17.67;;;16.67;;
15281;SDS011;7742;44.320;19.820;2023-10-19T12:53:34;17.23;;;16.23;;
15281;SDS011;7742;44.320;19.820;2023-10-19T12:56:02;17.50;;;16.30;;
15281;SDS011;7742;44.320;19.820;2023-10-19T12:58:29;17.00;;;15.80;;
15281;SDS011;7742;44.320;19.820;2023-10-19T13:00:57;16.37;;;15.07;;
15281;SDS011;7742;44.320;19.820;2023-10-19T13:03:24;18.33;;;17.03;;
15281;SDS011;7742;44.320;19.820;2023-10-19T13:05:52;16.83;;;15.80;;
15281;SDS011;7742;44.320;19.820;2023-10-19T13:08:21;18.73;;;17.67;;
15281;SDS011;7742;44.320;19.820;2023-10-19T13:10:48;17.03;;;15.93;;
15281;SDS011;7742;44.320;19.820;2023-10-19T13:13:15;18.80;;;17.70;;
15281;SDS011;7742;44.320;19.820;2023-10-19T13:15:43;18.83;;;17.60;;
15281;SDS011;7742;44.320;19.820;2023-10-19T13:18:11;17.50;;;16.30;;
15281;SDS011;7742;44.320;19.820;2023-10-19T13:20:45;16.70;;;15.70;;
15281;SDS011;7742;44.320;19.820;2023-10-19T13:23:13;16.30;;;15.30;;
15281;SDS011;7742;44.320;19.820;2023-10-19T13:25:43;17.00;;;15.90;;
15281;SDS011;7742;44.320;19.820;2023-10-19T13:28:16;18.13;;;17.00;;
15281;SDS011;7742;44.320;19.820;2023-10-19T13:30:45;19.03;;;17.93;;
15281;SDS011;7742;44.320;19.820;2023-10-19T13:33:13;17.30;;;16.30;;
15281;SDS011;7742;44.320;19.820;2023-10-19T13:35:40;18.20;;;16.93;;
15281;SDS011;7742;44.320;19.820;2023-10-19T13:38:08;18.57;;;17.47;;
15281;SDS011;7742;44.320;19.820;2023-10-19T13:40:35;19.17;;;17.97;;
15281;SDS011;7742;44.320;19.820;2023-10-19T13:43:04;17.50;;;16.30;;
15281;SDS011;7742;44.320;19.820;2023-10-19T13:45:32;18.00;;;16.80;;
15281;SDS011;7742;44.320;19.820;2023-10-19T13:47:59;17.50;;;16.20;;
15281;SDS011;7742;44.320;19.820;2023-10-19T13:50:26;17.80;;;16.60;;
15281;SDS011;7742;44.320;19.820;2023-10-19T13:52:55;18.03;;;16.83;;
15281;SDS011;7742;44.320;19.820;2023-10-19T13:55:22;18.27;;;16.97;;
15281;SDS011;7742;44.320;19.820;2023-10-19T13:57:49;17.83;;;16.83;;
15281;SDS011;7742;44.320;19.820;2023-10-19T14:00:19;18.40;;;17.00;;
15281;SDS011;7742;44.320;19.820;2023-10-19T14:02:50;18.30;;;17.10;;
15281;SDS011;7742;44.320;19.820;2023-10-19T14:05:17;18.23;;;16.97;;
15281;SDS011;7742;44.320;19.820;2023-10-19T14:07:45;18.40;;;17.10;;
15281;SDS011;7742;44.320;19.820;2023-10-19T14:10:12;19.10;;;17.70;;
15281;SDS011;7742;44.320;19.820;2023-10-19T14:12:39;17.63;;;16.23;;
15281;SDS011;7742;44.320;19.820;2023-10-19T14:15:08;17.00;;;15.80;;
15281;SDS011;7742;44.320;19.820;2023-10-19T14:17:37;17.53;;;16.23;;
15281;SDS011;7742;44.320;19.820;2023-10-19T14:20:04;16.87;;;15.77;;
15281;SDS011;7742;44.320;19.820;2023-10-19T14:22:31;19.37;;;17.90;;
15281;SDS011;7742;44.320;19.820;2023-10-19T14:25:01;16.70;;;15.50;;
15281;SDS011;7742;44.320;19.820;2023-10-19T14:27:28;19.70;;;18.40;;
15281;SDS011;7742;44.320;19.820;2023-10-19T14:29:55;19.20;;;17.90;;
15281;SDS011;7742;44.320;19.820;2023-10-19T14:32:22;17.47;;;16.27;;
15281;SDS011;7742;44.320;19.820;2023-10-19T14:34:50;17.77;;;16.43;;
15281;SDS011;7742;44.320;19.820;2023-10-19T14:37:18;19.73;;;18.30;;
15281;SDS011;7742;44.320;19.820;2023-10-19T14:39:45;19.50;;;18.30;;
15281;SDS011;7742;44.320;19.820;2023-10-19T14:42:12;20.00;;;18.57;;
15281;SDS011;7742;44.320;19.820;2023-10-19T14:44:39;19.90;;;18.60;;
15281;SDS011;7742;44.320;19.820;2023-10-19T14:47:06;22.13;;;20.50;;
15281;SDS011;7742;44.320;19.820;2023-10-19T14:49:34;18.37;;;17.00;;
15281;SDS011;7742;44.320;19.820;2023-10-19T14:52:03;17.60;;;16.43;;